PWSweather.com
Personal Weather Stations
Station Observations

AwhituWaiuku, CA 268400

Lat: -37.058, Lon: -174.6346

Elevation: 250

Station Type: Personal

http://www.weather-display.com/windy/gb/grahamsbeach.htm

Latest ConditionsUpdated 10:00:07 AM GMT-12:48 Friday, Feb 5, 2016
Currently Today's Max Today's Min Today's Average
Temperature 70.2°F21.2°C 70.2°F21.2°C 65.3°F18.5°C 66.6°F19.2°C
Dew Point 68.4°F20.2°C 68.4°F20.2°C 63.4°F17.4°C 64.7°F18.2°C
Winds 10.4 mph E16.7 kmh E 10.4 mph E16.7 kmh E - 6.3 mph 10.1 kmh
Wind Gusts 13.8 mph22.2 kmh 13.8 mph22.2 kmh - -
Humidity 94% 95% 90% 93%
Pressure 29.66 in1004.4 mb 29.68 in1005.1 mb 29.62 in1003.0 mb -
Precipitation - 0.05 in1.3 mm - -
Hour Temp Dew Point Humidity Winds Wind Gusts Pressure Precip Precip Rate Daily Precip Total
10:00 AM 70.2°F21.2°C 68.4°F20.2°C 94% 10.4 mph E16.7 kmh E 13.8 mph22.2 kmh 29.66 in1004.4 mb - 0.01 in0.3 mm 0.05 in1.3 mm
09:30 AM 69.1°F20.6°C 67.3°F19.6°C 94% 6.9 mph E11.1 kmh E 11.5 mph18.5 kmh 29.66 in1004.4 mb - 0.00 in0.0 mm 0.04 in1.0 mm
09:00 AM 68.6°F20.3°C 67.1°F19.5°C 95% 3.5 mph E5.6 kmh E 9.2 mph14.8 kmh 29.65 in1004.1 mb - 0.00 in0.0 mm 0.04 in1.0 mm
08:30 AM 68.0°F20.0°C 66.5°F19.2°C 95% 3.5 mph ESE5.6 kmh ESE 5.8 mph9.3 kmh 29.65 in1004.1 mb - 0.02 in0.5 mm 0.04 in1.0 mm
08:00 AM 67.2°F19.6°C 65.4°F18.6°C 94% 8.1 mph E13.0 kmh E 12.7 mph20.4 kmh 29.65 in1004.1 mb - 0.02 in0.5 mm 0.03 in0.8 mm
07:30 AM 67.0°F19.4°C 65.2°F18.4°C 94% 8.1 mph E13.0 kmh E 13.8 mph22.2 kmh 29.64 in1003.7 mb - 0.00 in0.0 mm 0.00 in0.0 mm
07:00 AM 66.6°F19.2°C 64.8°F18.2°C 94% 6.9 mph ESE11.1 kmh ESE 12.7 mph20.4 kmh 29.64 in1003.7 mb - 0.00 in0.0 mm 0.00 in0.0 mm
06:30 AM 66.3°F19.1°C 64.5°F18.1°C 94% 4.6 mph ESE7.4 kmh ESE 8.1 mph13.0 kmh 29.63 in1003.4 mb - 0.00 in0.0 mm 0.00 in0.0 mm
06:00 AM 66.1°F18.9°C 64.3°F17.9°C 94% 8.1 mph E13.0 kmh E 10.4 mph16.7 kmh 29.62 in1003.0 mb - 0.00 in0.0 mm 0.00 in0.0 mm
05:30 AM 65.9°F18.8°C 64.1°F17.8°C 94% 6.9 mph E11.1 kmh E 13.8 mph22.2 kmh 29.62 in1003.0 mb - 0.00 in0.0 mm 0.00 in0.0 mm
05:00 AM 65.7°F18.7°C 63.9°F17.7°C 94% 4.6 mph E7.4 kmh E 10.4 mph16.7 kmh 29.62 in1003.0 mb - 0.00 in0.0 mm 0.00 in0.0 mm
04:30 AM 65.3°F18.5°C 63.5°F17.5°C 94% 4.6 mph ESE7.4 kmh ESE 11.5 mph18.5 kmh 29.62 in1003.0 mb - 0.00 in0.0 mm 0.00 in0.0 mm
04:00 AM 65.3°F18.5°C 63.5°F17.5°C 94% 4.6 mph ESE7.4 kmh ESE 10.4 mph16.7 kmh 29.62 in1003.0 mb - 0.00 in0.0 mm 0.00 in0.0 mm
03:30 AM 65.5°F18.6°C 63.8°F17.7°C 94% 4.6 mph E7.4 kmh E 11.5 mph18.5 kmh 29.62 in1003.0 mb - 0.00 in0.0 mm 0.00 in0.0 mm
03:00 AM 66.0°F18.9°C 63.9°F17.7°C 93% 6.9 mph E11.1 kmh E 11.5 mph18.5 kmh 29.63 in1003.4 mb - 0.00 in0.0 mm 0.00 in0.0 mm
02:30 AM 65.9°F18.8°C 63.8°F17.7°C 93% 5.8 mph E9.3 kmh E 8.1 mph13.0 kmh 29.64 in1003.7 mb - 0.00 in0.0 mm 0.00 in0.0 mm
02:00 AM 65.8°F18.8°C 63.7°F17.6°C 93% 5.8 mph E9.3 kmh E 8.1 mph13.0 kmh 29.64 in1003.7 mb - 0.00 in0.0 mm 0.00 in0.0 mm
01:30 AM 65.6°F18.7°C 63.5°F17.5°C 93% 6.9 mph E11.1 kmh E 11.5 mph18.5 kmh 29.66 in1004.4 mb - 0.00 in0.0 mm 0.00 in0.0 mm
01:00 AM 66.1°F18.9°C 63.4°F17.4°C 91% 6.9 mph E11.1 kmh E 10.4 mph16.7 kmh 29.66 in1004.4 mb - 0.00 in0.0 mm 0.00 in0.0 mm
12:30 AM 66.4°F19.1°C 63.7°F17.6°C 91% 6.9 mph E11.1 kmh E 11.5 mph18.5 kmh 29.67 in1004.7 mb - 0.00 in0.0 mm 0.00 in0.0 mm
12:00 AM 66.7°F19.3°C 63.7°F17.6°C 90% 8.1 mph E13.0 kmh E 11.5 mph18.5 kmh 29.68 in1005.1 mb - 0.00 in0.0 mm 0.00 in0.0 mm